Time;durP1;ratioP1;P1;durP2;ratioP2;P2;SDS_P1;SDS_P2;PMS_P1;PMS_P2;Temp;Humidity;BMP_temperature;BMP_pressure;BME280_temperature;BME280_humidity;BME280_pressure;Samples;Min_cycle;Max_cycle;Signal;HPM_P1;HPM_P2
2023/01/09 00:00:15;;;;;;;2.47;0.90;;;14.30;63.20;;;;;;4902697;29;20060;-71
2023/01/09 00:02:43;;;;;;;3.63;0.75;;;14.30;63.20;;;;;;4900066;29;20056;-74
2023/01/09 00:05:11;;;;;;;2.17;0.70;;;14.20;63.20;;;;;;4900540;29;20056;-72
2023/01/09 00:07:37;;;;;;;3.03;0.93;;;14.20;63.30;;;;;;4900008;29;20159;-71
2023/01/09 00:10:04;;;;;;;3.30;0.70;;;14.30;63.40;;;;;;4900200;29;20484;-71
2023/01/09 00:12:30;;;;;;;3.83;0.90;;;14.20;63.40;;;;;;4899948;29;20076;-71
2023/01/09 00:14:56;;;;;;;4.57;1.08;;;14.30;63.40;;;;;;4900395;29;20056;-72
2023/01/09 00:17:21;;;;;;;4.20;0.82;;;14.20;63.40;;;;;;4900126;29;20052;-72
2023/01/09 00:19:47;;;;;;;2.65;0.93;;;14.20;63.50;;;;;;4900276;29;20100;-72
2023/01/09 00:22:13;;;;;;;3.60;0.85;;;14.20;63.50;;;;;;4900166;29;20052;-73
2023/01/09 00:24:38;;;;;;;2.67;0.77;;;14.20;63.50;;;;;;4899855;29;20487;-72
2023/01/09 00:27:04;;;;;;;2.67;0.90;;;14.20;63.60;;;;;;4917576;29;20047;-71
2023/01/09 00:29:30;;;;;;;2.10;0.63;;;14.20;63.60;;;;;;4918942;29;20388;-71
2023/01/09 00:31:56;;;;;;;2.78;0.93;;;14.20;63.70;;;;;;4919435;29;20498;-73
2023/01/09 00:34:22;;;;;;;3.42;0.95;;;14.20;63.70;;;;;;4920912;29;20050;-72
2023/01/09 00:36:53;;;;;;;4.55;1.40;;;14.20;63.70;;;;;;4922635;29;20056;-72
2023/01/09 00:39:20;;;;;;;3.78;0.80;;;14.20;63.80;;;;;;4923021;29;20052;-72
2023/01/09 00:41:49;;;;;;;1.83;0.50;;;14.20;63.90;;;;;;4922987;29;20055;-73
2023/01/09 00:44:19;;;;;;;4.20;0.98;;;14.20;63.90;;;;;;4922574;29;20180;-72
2023/01/09 00:46:52;;;;;;;2.35;0.60;;;14.10;63.90;;;;;;4922761;29;20130;-73
2023/01/09 00:49:18;;;;;;;2.67;0.70;;;14.10;63.90;;;;;;4922953;29;20371;-71
2023/01/09 00:51:44;;;;;;;2.15;0.60;;;14.10;64.00;;;;;;4921895;29;20040;-71
2023/01/09 00:54:12;;;;;;;2.35;0.60;;;14.10;64.00;;;;;;4922996;29;20067;-72
2023/01/09 00:56:38;;;;;;;2.72;0.77;;;14.10;64.00;;;;;;4922672;29;20056;-72
2023/01/09 00:59:05;;;;;;;2.92;0.40;;;14.10;64.70;;;;;;4905285;29;20420;-71
2023/01/09 01:01:30;;;;;;;3.25;0.70;;;14.10;64.10;;;;;;4922606;29;20136;-72
2023/01/09 01:03:56;;;;;;;2.70;1.00;;;14.00;64.10;;;;;;4922125;29;20052;-72
2023/01/09 01:09:06;;;;;;;4.07;0.88;;;14.00;64.10;;;;;;4905300;29;20060;-71
2023/01/09 01:11:32;;;;;;;3.72;1.20;;;14.00;64.20;;;;;;4921476;29;20052;-72
2023/01/09 01:13:58;;;;;;;3.78;0.70;;;14.00;64.20;;;;;;4922123;29;20058;-72
2023/01/09 01:16:24;;;;;;;2.83;0.55;;;14.00;64.20;;;;;;4921391;29;20076;-72
2023/01/09 01:18:50;;;;;;;1.60;0.60;;;14.00;64.20;;;;;;4921923;29;20052;-71
2023/01/09 01:21:16;;;;;;;2.92;0.90;;;14.00;64.20;;;;;;4922038;29;20041;-73
2023/01/09 01:23:42;;;;;;;3.15;0.80;;;13.90;64.20;;;;;;4921862;29;20051;-72
2023/01/09 01:26:11;;;;;;;1.83;0.50;;;13.90;64.20;;;;;;4921853;29;20048;-73
2023/01/09 01:28:37;;;;;;;3.10;0.80;;;13.90;64.10;;;;;;4905404;29;20084;-72
2023/01/09 01:31:03;;;;;;;4.43;1.02;;;13.90;64.20;;;;;;4921752;29;20048;-73
2023/01/09 04:21:26;;;;;;;4.60;1.45;;;13.50;64.30;;;;;;5710019;23;20062;-72
2023/01/09 04:23:52;;;;;;;6.53;1.20;;;13.50;64.40;;;;;;4871958;29;20056;-72
2023/01/09 04:26:17;;;;;;;5.68;1.23;;;13.50;64.30;;;;;;4870565;29;20053;-77
2023/01/09 04:28:43;;;;;;;5.43;1.55;;;13.50;64.30;;;;;;4871864;29;20056;-71
2023/01/09 04:31:09;;;;;;;3.85;1.17;;;13.50;64.30;;;;;;4871582;29;20060;-70
2023/01/09 04:33:35;;;;;;;5.13;1.55;;;13.50;64.40;;;;;;4872105;29;20053;-74
2023/01/09 04:36:01;;;;;;;4.40;1.45;;;13.50;64.50;;;;;;4870489;29;20053;-71
2023/01/09 04:38:26;;;;;;;2.92;1.27;;;13.50;64.40;;;;;;4871409;29;20209;-71
2023/01/09 04:40:52;;;;;;;10.60;1.98;;;13.50;64.40;;;;;;4871939;29;20041;-74
2023/01/09 04:43:18;;;;;;;6.28;1.52;;;13.50;64.40;;;;;;4871692;29;20050;-73
2023/01/09 04:45:44;;;;;;;4.10;1.75;;;13.50;64.40;;;;;;4871588;29;20380;-76
2023/01/09 04:48:10;;;;;;;8.80;1.80;;;13.50;64.40;;;;;;4871635;29;20485;-76
2023/01/09 04:50:35;;;;;;;3.90;1.52;;;13.50;64.30;;;;;;4885192;29;20045;-73
2023/01/09 04:53:01;;;;;;;5.15;1.77;;;13.50;64.30;;;;;;4870715;29;20045;-72
2023/01/09 04:55:27;;;;;;;7.30;1.52;;;13.50;64.50;;;;;;4874684;29;20049;-70
2023/01/09 04:57:52;;;;;;;5.18;1.67;;;13.50;64.40;;;;;;4873850;29;20070;-71
2023/01/09 05:00:18;;;;;;;3.20;1.50;;;13.50;64.30;;;;;;4871929;29;20049;-77
2023/01/09 05:02:44;;;;;;;3.72;1.50;;;13.50;64.30;;;;;;4871913;29;20425;-73
2023/01/09 05:05:10;;;;;;;4.00;1.50;;;13.50;64.30;;;;;;4871441;29;20052;-72
2023/01/09 05:07:36;;;;;;;4.65;1.83;;;13.50;64.20;;;;;;4870253;29;20132;-73
2023/01/09 05:10:03;;;;;;;4.05;1.80;;;13.50;64.20;;;;;;4872487;29;20517;-75
2023/01/09 05:12:29;;;;;;;4.53;1.70;;;13.40;64.00;;;;;;4874535;29;20048;-76
2023/01/09 05:14:56;;;;;;;4.47;2.13;;;13.40;64.00;;;;;;4888174;29;20046;-75
2023/01/09 05:17:22;;;;;;;4.55;1.95;;;13.40;64.00;;;;;;4871111;29;20060;-72
2023/01/09 05:19:48;;;;;;;3.55;2.13;;;13.40;64.00;;;;;;4873305;29;20046;-74
2023/01/09 05:22:14;;;;;;;4.07;1.60;;;13.40;64.00;;;;;;4880919;29;20108;-74
2023/01/09 05:24:40;;;;;;;4.53;1.70;;;13.40;64.10;;;;;;4894756;29;20052;-73
2023/01/09 05:27:06;;;;;;;3.90;1.65;;;13.40;64.30;;;;;;4893689;29;20467;-73
2023/01/09 05:29:31;;;;;;;8.45;2.78;;;13.40;64.50;;;;;;4895670;29;20048;-72
2023/01/09 05:31:57;;;;;;;2.67;1.05;;;13.40;65.30;;;;;;4896001;29;20052;-73
2023/01/09 05:34:23;;;;;;;4.93;1.25;;;13.50;66.30;;;;;;4892127;29;20060;-72
2023/01/09 05:36:49;;;;;;;6.18;1.55;;;13.50;65.60;;;;;;4897345;29;20048;-73
2023/01/09 05:39:15;;;;;;;3.03;1.10;;;13.70;65.70;;;;;;4893271;29;20124;-73
2023/01/09 05:41:40;;;;;;;4.38;0.77;;;13.80;65.70;;;;;;4903802;29;20099;-73
2023/01/09 05:44:06;;;;;;;2.33;0.50;;;14.00;65.70;;;;;;4894636;29;20057;-74
2023/01/09 05:46:32;;;;;;;2.38;0.75;;;14.20;65.70;;;;;;4897800;29;20376;-76
2023/01/09 05:48:58;;;;;;;2.72;1.35;;;14.30;65.70;;;;;;4886642;29;20353;-72
2023/01/09 05:51:23;;;;;;;5.07;1.38;;;14.40;65.70;;;;;;4883785;29;20128;-72
2023/01/09 05:53:49;;;;;;;5.75;1.00;;;14.40;65.70;;;;;;4883814;29;20444;-69
2023/01/09 05:56:15;;;;;;;7.03;1.40;;;14.50;66.10;;;;;;4899580;29;20060;-72
2023/01/09 05:58:41;;;;;;;7.60;1.20;;;14.50;66.10;;;;;;4902705;29;20048;-74
2023/01/09 06:01:07;;;;;;;7.90;1.20;;;14.60;66.60;;;;;;4902581;29;20052;-77
2023/01/09 06:03:32;;;;;;;7.47;1.40;;;14.60;66.70;;;;;;4902204;29;20052;-78
2023/01/09 06:05:58;;;;;;;6.72;1.60;;;14.70;66.90;;;;;;4901816;29;20054;-77
2023/01/09 06:08:24;;;;;;;8.25;1.73;;;14.70;67.00;;;;;;4902090;29;20371;-77
2023/01/09 06:10:50;;;;;;;8.15;1.40;;;14.80;67.50;;;;;;4899822;29;20045;-76
2023/01/09 06:13:16;;;;;;;8.10;1.33;;;14.80;67.80;;;;;;4901700;29;20052;-76
2023/01/09 06:15:42;;;;;;;10.23;1.63;;;14.90;68.00;;;;;;4901672;29;20135;-75
2023/01/09 06:18:07;;;;;;;9.32;1.55;;;15.00;68.20;;;;;;4901278;29;20063;-78
2023/01/09 06:20:33;;;;;;;8.77;1.23;;;15.00;68.30;;;;;;4901860;29;20052;-74
2023/01/09 06:22:59;;;;;;;11.60;2.03;;;15.20;68.50;;;;;;4901982;29;20475;-75
2023/01/09 06:25:25;;;;;;;9.07;1.30;;;15.10;68.10;;;;;;4901026;29;20055;-73
2023/01/09 06:27:51;;;;;;;10.23;1.80;;;15.20;68.70;;;;;;4901915;29;20049;-73
2023/01/09 06:30:18;;;;;;;13.00;1.20;;;15.30;68.90;;;;;;4901747;29;20053;-72
2023/01/09 06:32:46;;;;;;;20.45;2.80;;;15.40;69.00;;;;;;4900831;29;20055;-73
2023/01/09 06:35:11;;;;;;;17.75;1.75;;;15.50;69.20;;;;;;4901884;29;20131;-74
2023/01/09 06:37:37;;;;;;;17.73;1.25;;;15.60;69.20;;;;;;4885381;29;20135;-74
2023/01/09 06:40:03;;;;;;;18.05;2.67;;;15.60;69.10;;;;;;4901350;29;20041;-80
2023/01/09 06:42:29;;;;;;;14.13;2.65;;;15.70;68.60;;;;;;4901088;29;20448;-78
2023/01/09 06:44:54;;;;;;;7.60;2.58;;;15.70;67.40;;;;;;4900913;29;20104;-77
2023/01/09 06:47:20;;;;;;;8.43;3.08;;;15.70;65.30;;;;;;4900347;29;20072;-73
2023/01/09 06:49:46;;;;;;;6.40;2.83;;;15.60;64.30;;;;;;4901234;29;20055;-76
2023/01/09 06:52:12;;;;;;;10.23;3.63;;;15.50;62.90;;;;;;4901366;29;20432;-72
2023/01/09 06:54:38;;;;;;;18.25;3.47;;;15.50;63.20;;;;;;4901291;29;20044;-75
2023/01/09 06:57:03;;;;;;;15.50;3.20;;;15.40;63.50;;;;;;4885125;29;20111;-74
2023/01/09 06:59:29;;;;;;;9.65;3.03;;;15.40;64.20;;;;;;4881956;29;20056;-77
2023/01/09 07:01:58;;;;;;;12.80;2.95;;;15.30;64.40;;;;;;4901535;29;20047;-74
2023/01/09 07:04:24;;;;;;;12.07;2.80;;;15.30;64.50;;;;;;4900753;29;20092;-73
2023/01/09 07:06:49;;;;;;;16.00;3.60;;;15.30;64.80;;;;;;4901233;29;20053;-73
2023/01/09 07:09:15;;;;;;;16.55;4.18;;;15.20;64.90;;;;;;4901551;29;20408;-75
2023/01/09 07:11:41;;;;;;;15.52;3.85;;;15.20;65.20;;;;;;4901326;29;20523;-71
2023/01/09 07:14:06;;;;;;;21.92;4.28;;;15.20;65.30;;;;;;4900894;29;20048;-75
2023/01/09 07:16:32;;;;;;;9.40;3.30;;;15.10;65.50;;;;;;4883840;29;20041;-73
2023/01/09 07:18:58;;;;;;;12.40;3.65;;;15.10;65.60;;;;;;4901344;29;20360;-73
2023/01/09 07:21:24;;;;;;;14.60;3.80;;;15.10;66.00;;;;;;4884748;29;20583;-73
2023/01/09 07:23:49;;;;;;;12.30;3.75;;;15.00;66.10;;;;;;4900185;29;20132;-73
2023/01/09 07:26:15;;;;;;;12.63;3.70;;;15.00;66.20;;;;;;4901019;29;20053;-74
2023/01/09 07:28:41;;;;;;;13.88;3.10;;;15.00;66.30;;;;;;4901022;29;20052;-72
2023/01/09 07:31:07;;;;;;;10.23;3.20;;;14.90;66.40;;;;;;4884569;29;20052;-71
2023/01/09 07:33:34;;;;;;;10.45;3.28;;;14.90;66.40;;;;;;4899283;29;20068;-74
2023/01/09 07:36:00;;;;;;;13.50;3.67;;;14.90;66.50;;;;;;4884046;29;20044;-74
2023/01/09 07:38:25;;;;;;;12.38;3.88;;;14.90;66.50;;;;;;4884732;29;20052;-73
2023/01/09 07:40:51;;;;;;;9.45;3.05;;;14.80;66.50;;;;;;4900750;29;20052;-74
2023/01/09 07:43:17;;;;;;;9.48;2.80;;;14.80;66.50;;;;;;4883807;29;20385;-74
2023/01/09 07:45:45;;;;;;;7.78;2.72;;;14.80;66.70;;;;;;4900494;29;20421;-75
2023/01/09 07:48:11;;;;;;;7.22;3.00;;;14.80;66.90;;;;;;4899928;29;20081;-74
2023/01/09 07:50:36;;;;;;;12.93;3.13;;;14.80;67.00;;;;;;4899974;29;20048;-73
2023/01/09 07:53:02;;;;;;;7.30;2.58;;;14.80;67.00;;;;;;4900479;29;20044;-73
2023/01/09 07:55:28;;;;;;;13.00;2.97;;;14.70;67.10;;;;;;4900356;29;20091;-73
2023/01/09 07:57:53;;;;;;;10.23;2.65;;;14.70;67.20;;;;;;4883163;29;20375;-74
2023/01/09 08:00:20;;;;;;;8.95;2.97;;;14.70;67.30;;;;;;4900086;29;20056;-73
2023/01/09 08:02:50;;;;;;;4.45;2.20;;;14.70;67.40;;;;;;4900252;29;20055;-72
2023/01/09 08:05:17;;;;;;;9.00;2.30;;;14.70;67.40;;;;;;4899899;29;20052;-74
2023/01/09 08:07:43;;;;;;;7.57;2.72;;;14.80;67.40;;;;;;4900938;29;20056;-74
2023/01/09 08:10:10;;;;;;;6.93;2.17;;;14.90;67.50;;;;;;4900243;29;20037;-73
2023/01/09 08:12:35;;;;;;;10.55;2.50;;;14.90;67.40;;;;;;4900148;29;20483;-74
2023/01/09 08:15:02;;;;;;;7.18;2.35;;;15.00;67.40;;;;;;4899774;29;20133;-73
2023/01/09 08:17:27;;;;;;;7.53;2.50;;;15.20;67.20;;;;;;4900431;29;20459;-73
2023/01/09 08:19:53;;;;;;;9.35;2.55;;;15.30;67.10;;;;;;4900400;29;20116;-75
2023/01/09 08:22:19;;;;;;;7.47;1.50;;;15.30;66.90;;;;;;4900255;29;20064;-74
2023/01/09 08:24:44;;;;;;;5.93;1.95;;;15.40;66.80;;;;;;4883453;29;20380;-75
2023/01/09 08:27:10;;;;;;;13.32;2.22;;;15.50;66.70;;;;;;4900220;29;20049;-76
2023/01/09 08:29:36;;;;;;;11.43;2.13;;;15.50;66.80;;;;;;4900117;29;20108;-77
2023/01/09 08:32:02;;;;;;;11.40;2.20;;;15.60;66.80;;;;;;4900252;29;20329;-76
2023/01/09 08:34:27;;;;;;;8.85;1.83;;;15.60;66.80;;;;;;4899891;29;20088;-75
2023/01/09 08:36:53;;;;;;;7.95;2.17;;;15.60;66.80;;;;;;4900000;29;20060;-76
2023/01/09 08:39:19;;;;;;;9.15;1.83;;;15.60;66.70;;;;;;4900133;29;20115;-78
2023/01/09 08:47:19;;;;;;;7.85;1.70;;;15.80;66.80;;;;;;4899974;29;20417;-77
2023/01/09 08:49:44;;;;;;;10.23;1.70;;;15.90;66.80;;;;;;4883351;29;20103;-77
2023/01/09 08:52:12;;;;;;;20.98;1.92;;;16.00;66.70;;;;;;4868416;29;20100;-79
2023/01/09 08:54:38;;;;;;;10.43;2.10;;;16.00;66.70;;;;;;4899874;29;20067;-76
2023/01/09 08:57:05;;;;;;;9.80;2.03;;;16.00;66.60;;;;;;4903532;29;20048;-76
2023/01/09 08:59:31;;;;;;;9.15;2.05;;;16.00;66.50;;;;;;4886947;29;20048;-78
2023/01/09 09:01:57;;;;;;;8.27;2.13;;;16.10;66.50;;;;;;4887111;29;20052;-78
2023/01/09 09:04:23;;;;;;;5.85;1.45;;;16.20;66.40;;;;;;4903338;29;20363;-79
2023/01/09 09:06:49;;;;;;;10.50;1.58;;;16.20;66.30;;;;;;4903581;29;20072;-78
2023/01/09 09:09:14;;;;;;;11.38;1.88;;;16.20;66.20;;;;;;4903759;29;20041;-77
2023/01/09 09:11:40;;;;;;;8.85;1.95;;;16.20;65.50;;;;;;4903186;29;20100;-80
2023/01/09 09:16:52;;;;;;;;;;;16.10;64.10;;;;;;4887082;29;20061;-77
2023/01/09 09:19:17;;;;;;;7.70;1.70;;;16.10;62.70;;;;;;4903383;29;19931;-78
2023/01/09 09:21:43;;;;;;;6.90;1.70;;;16.00;63.40;;;;;;4903239;29;20053;-78
2023/01/09 09:24:09;;;;;;;6.47;1.40;;;16.00;63.40;;;;;;4902878;29;20048;-77
2023/01/09 09:26:35;;;;;;;9.02;1.23;;;16.00;63.70;;;;;;4902490;29;20368;-77
2023/01/09 09:29:00;;;;;;;8.80;1.75;;;16.00;63.80;;;;;;4902780;29;20131;-76
2023/01/09 09:31:26;;;;;;;8.27;1.38;;;15.90;64.00;;;;;;4903717;29;20062;-76
2023/01/09 09:33:52;;;;;;;7.15;1.42;;;15.90;64.30;;;;;;4902742;29;20056;-77
2023/01/09 09:36:18;;;;;;;13.73;1.70;;;15.80;64.50;;;;;;4903111;29;20048;-75
2023/01/09 09:38:43;;;;;;;6.90;1.17;;;15.80;64.70;;;;;;4903109;29;20131;-76
2023/01/09 09:44:42;;;;;;;7.80;1.20;;;15.80;65.20;;;;;;4902700;29;20396;-75
2023/01/09 09:47:16;;;;;;;3.75;1.10;;;15.80;65.40;;;;;;4902805;29;20388;-75
2023/01/09 09:50:09;;;;;;;3.30;0.80;;;15.70;65.40;;;;;;4901759;29;20049;-77
2023/01/09 09:52:49;;;;;;;6.47;1.30;;;15.70;65.30;;;;;;4885758;29;20048;-77
2023/01/09 09:55:31;;;;;;;10.90;1.10;;;15.80;65.40;;;;;;4885975;29;20131;-76
2023/01/09 09:58:00;;;;;;;8.02;1.08;;;15.70;65.60;;;;;;4885964;29;20364;-76
2023/01/09 10:00:27;;;;;;;8.20;1.35;;;15.60;65.90;;;;;;4902249;29;20474;-77
2023/01/09 10:03:00;;;;;;;5.45;1.25;;;15.60;66.10;;;;;;4902109;29;20531;-75
2023/01/09 10:05:36;;;;;;;8.05;1.58;;;15.60;66.20;;;;;;4902017;29;20059;-75
2023/01/09 10:08:24;;;;;;;6.93;1.52;;;15.50;66.30;;;;;;4901564;29;20088;-76
2023/01/09 10:10:53;;;;;;;5.55;1.35;;;15.50;66.60;;;;;;4872645;29;20096;-75
2023/01/09 10:16:35;;;;;;;7.65;1.10;;;15.50;66.80;;;;;;4901832;29;20056;-78
2023/01/09 10:19:24;;;;;;;2.88;1.35;;;15.40;66.80;;;;;;4902048;29;20063;-77
2023/01/09 10:22:05;;;;;;;6.82;0.93;;;15.30;67.00;;;;;;4901700;29;20065;-76
2023/01/09 10:24:40;;;;;;;11.32;1.77;;;15.40;67.20;;;;;;4901911;29;20417;-76
2023/01/09 10:27:20;;;;;;;7.22;1.15;;;15.30;67.20;;;;;;4885400;29;20525;-78
2023/01/09 10:30:16;;;;;;;4.63;0.90;;;15.30;67.20;;;;;;4884638;29;20447;-76
2023/01/09 10:33:08;;;;;;;5.07;0.90;;;15.30;67.20;;;;;;4896796;29;20049;-77
2023/01/09 10:35:59;;;;;;;3.95;0.60;;;15.30;67.20;;;;;;4901370;29;20131;-78
2023/01/09 10:38:35;;;;;;;2.80;0.73;;;15.20;67.10;;;;;;4885181;29;20048;-79
2023/01/09 10:41:25;;;;;;;6.65;0.90;;;15.20;67.30;;;;;;4901298;29;20467;-77
2023/01/09 10:44:17;;;;;;;4.80;1.58;;;15.20;67.40;;;;;;4901626;29;20147;-78
2023/01/09 10:46:48;;;;;;;4.90;0.90;;;15.20;67.20;;;;;;4894838;29;20131;-76
2023/01/09 10:49:17;;;;;;;6.95;1.00;;;15.10;67.40;;;;;;4902200;29;20048;-77
2023/01/09 10:51:48;;;;;;;9.23;1.27;;;15.10;67.50;;;;;;4901464;29;20092;-77
2023/01/09 10:54:22;;;;;;;6.80;1.50;;;15.10;67.50;;;;;;4901297;29;20445;-76
2023/01/09 10:56:54;;;;;;;5.10;0.80;;;15.10;67.50;;;;;;4884879;29;20057;-76
2023/01/09 10:59:20;;;;;;;4.90;0.90;;;15.10;67.50;;;;;;4901574;29;20088;-77
2023/01/09 11:01:46;;;;;;;3.05;0.60;;;15.10;67.50;;;;;;4900190;29;20068;-76
2023/01/09 11:04:35;;;;;;;4.65;0.95;;;15.10;67.40;;;;;;4898175;29;20099;-78
2023/01/09 11:07:17;;;;;;;5.20;0.85;;;15.10;67.20;;;;;;4881164;29;20064;-76
2023/01/09 11:09:59;;;;;;;3.63;0.80;;;15.10;67.10;;;;;;4893076;29;20045;-74
2023/01/09 11:12:31;;;;;;;4.00;1.13;;;15.10;67.30;;;;;;4897266;29;20072;-75
2023/01/09 11:15:19;;;;;;;3.83;0.93;;;15.10;67.40;;;;;;4920211;29;20056;-79
2023/01/09 11:17:46;;;;;;;2.78;0.60;;;15.10;67.60;;;;;;4865615;29;20056;-78
2023/01/09 11:20:22;;;;;;;3.13;0.65;;;15.10;67.70;;;;;;4882322;29;20040;-83
2023/01/09 11:22:50;;;;;;;3.80;1.23;;;15.10;67.70;;;;;;4882213;29;20057;-81
2023/01/09 11:25:18;;;;;;;2.63;0.82;;;15.10;67.60;;;;;;4850136;29;20063;-77
2023/01/09 11:28:01;;;;;;;3.88;0.90;;;15.10;67.60;;;;;;4882335;29;20049;-77
2023/01/09 11:30:28;;;;;;;4.25;0.95;;;15.10;67.70;;;;;;4882104;29;20049;-78
2023/01/09 11:32:56;;;;;;;2.55;0.80;;;15.10;67.70;;;;;;4895096;29;21503;-77
2023/01/09 11:35:55;;;;;;;3.97;0.65;;;15.00;67.80;;;;;;4900379;29;20053;-76
2023/01/09 11:38:20;;;;;;;2.45;0.98;;;15.10;67.70;;;;;;4900575;29;20393;-77
2023/01/09 11:40:58;;;;;;;3.13;1.15;;;15.00;67.90;;;;;;4900691;29;20144;-77
2023/01/09 11:43:29;;;;;;;2.75;0.68;;;15.00;67.90;;;;;;4900517;29;20049;-75
2023/01/09 11:45:57;;;;;;;2.00;0.80;;;15.00;68.00;;;;;;4900199;29;20060;-80
2023/01/09 11:48:56;;;;;;;2.40;0.85;;;15.00;68.00;;;;;;4900638;29;20053;-77
2023/01/09 11:51:33;;;;;;;1.75;0.60;;;15.00;68.00;;;;;;4900458;29;20075;-77
2023/01/09 11:54:24;;;;;;;2.80;0.73;;;14.90;68.10;;;;;;4899625;29;20052;-76
2023/01/09 11:56:51;;;;;;;2.65;0.55;;;15.00;68.20;;;;;;4900220;29;20056;-75
2023/01/09 11:59:24;;;;;;;2.25;0.80;;;14.90;68.20;;;;;;4900881;29;20068;-78
2023/01/09 12:02:23;;;;;;;4.75;1.45;;;14.90;68.30;;;;;;4899930;29;20059;-76
2023/01/09 12:04:49;;;;;;;2.00;0.60;;;14.90;68.20;;;;;;4899591;29;20040;-77
2023/01/09 12:07:39;;;;;;;3.35;0.68;;;14.90;68.30;;;;;;4883342;29;20045;-75
2023/01/09 12:10:39;;;;;;;2.45;1.00;;;14.90;68.40;;;;;;4900290;29;20083;-76
2023/01/09 12:13:49;;;;;;;2.97;0.80;;;14.90;68.30;;;;;;4900684;29;20131;-78
2023/01/09 12:16:30;;;;;;;2.55;0.95;;;14.90;68.30;;;;;;4850665;29;20457;-76
2023/01/09 12:19:36;;;;;;;2.80;1.05;;;14.80;68.40;;;;;;4881604;29;20121;-76
2023/01/09 12:22:24;;;;;;;2.22;0.73;;;14.80;68.40;;;;;;4879476;29;20401;-78
2023/01/09 12:25:27;;;;;;;3.45;0.68;;;14.80;68.50;;;;;;4899554;29;20056;-76
2023/01/09 12:28:10;;;;;;;3.08;0.90;;;14.80;68.60;;;;;;4850004;29;20092;-74
2023/01/09 12:31:06;;;;;;;4.70;0.88;;;14.80;68.70;;;;;;4899350;29;20080;-76
2023/01/09 12:33:41;;;;;;;2.75;0.82;;;14.80;68.70;;;;;;4900008;29;20055;-77
2023/01/09 12:36:15;;;;;;;2.20;0.60;;;14.80;68.70;;;;;;4899202;29;20088;-77
2023/01/09 12:38:54;;;;;;;3.42;0.80;;;14.80;68.70;;;;;;4900294;29;20472;-76
2023/01/09 12:41:29;;;;;;;1.95;0.52;;;14.80;68.60;;;;;;4882863;29;20064;-75
2023/01/09 12:44:03;;;;;;;2.33;1.02;;;14.80;68.70;;;;;;4899211;29;20353;-76
2023/01/09 12:46:46;;;;;;;5.82;1.00;;;14.80;68.60;;;;;;4899446;29;20048;-78
2023/01/09 12:50:03;;;;;;;2.03;0.60;;;14.80;68.60;;;;;;4899577;29;20115;-78
2023/01/09 12:52:42;;;;;;;5.30;0.95;;;14.80;68.50;;;;;;4841953;29;20082;-76
2023/01/09 12:55:24;;;;;;;4.20;0.50;;;14.80;68.60;;;;;;4882553;29;20056;-80
2023/01/09 12:58:00;;;;;;;5.57;1.00;;;14.80;68.60;;;;;;4883044;29;20048;-76
2023/01/09 13:00:35;;;;;;;3.75;1.20;;;14.80;68.70;;;;;;4883077;29;20472;-79
2023/01/09 13:03:29;;;;;;;1.30;0.68;;;14.80;68.50;;;;;;4882993;29;20353;-78
2023/01/09 13:05:56;;;;;;;3.17;0.80;;;14.80;68.50;;;;;;4899593;29;20065;-78
2023/01/09 13:08:48;;;;;;;2.63;0.70;;;14.80;68.60;;;;;;4899575;29;20519;-80
2023/01/09 13:11:24;;;;;;;3.15;0.95;;;14.80;68.70;;;;;;4899738;29;20092;-79
2023/01/09 13:13:54;;;;;;;4.28;1.40;;;14.80;68.70;;;;;;4899725;29;20549;-77
2023/01/09 13:16:34;;;;;;;4.03;1.00;;;14.80;69.20;;;;;;4899699;29;20048;-79
2023/01/09 13:19:09;;;;;;;2.15;0.95;;;14.80;68.60;;;;;;4900236;29;20052;-76
2023/01/09 13:21:37;;;;;;;2.85;0.88;;;14.80;68.60;;;;;;4900140;29;20115;-78
2023/01/09 13:24:16;;;;;;;4.15;0.88;;;14.80;68.50;;;;;;4899620;29;20136;-79
2023/01/09 13:27:04;;;;;;;1.90;0.47;;;14.80;68.50;;;;;;4881933;29;20048;-79
2023/01/09 13:29:59;;;;;;;4.45;1.00;;;14.80;68.50;;;;;;4899182;29;20045;-79
2023/01/09 13:32:49;;;;;;;6.65;1.45;;;14.80;68.20;;;;;;4900036;29;20135;-77
2023/01/09 13:35:15;;;;;;;13.93;2.10;;;14.70;67.50;;;;;;4883497;29;20475;-75
2023/01/09 13:37:41;;;;;;;13.88;1.92;;;14.70;66.60;;;;;;4899786;29;20032;-76
2023/01/09 13:40:19;;;;;;;16.35;2.95;;;14.70;65.90;;;;;;4882077;29;20049;-76
2023/01/09 13:43:05;;;;;;;18.23;2.83;;;14.70;65.10;;;;;;4902716;29;20359;-76
2023/01/09 13:45:36;;;;;;;21.58;3.30;;;14.60;65.20;;;;;;4902166;29;20471;-78
2023/01/09 13:48:12;;;;;;;10.38;2.17;;;14.60;65.60;;;;;;4903372;29;20053;-76
2023/01/09 13:50:39;;;;;;;11.93;2.15;;;14.50;66.10;;;;;;4885946;29;20089;-82
2023/01/09 13:53:17;;;;;;;11.45;1.65;;;14.50;66.00;;;;;;4902937;29;20085;-77
2023/01/09 13:55:58;;;;;;;20.63;2.30;;;14.60;66.40;;;;;;4902551;29;20061;-77
2023/01/09 13:58:48;;;;;;;19.50;3.28;;;14.70;66.80;;;;;;4902472;29;20088;-78
2023/01/09 14:01:23;;;;;;;18.00;2.42;;;14.60;67.50;;;;;;4895150;29;20059;-79
2023/01/09 14:04:13;;;;;;;17.27;2.22;;;14.80;67.50;;;;;;4902180;29;20105;-79
2023/01/09 14:06:39;;;;;;;15.65;3.03;;;14.80;67.60;;;;;;4902333;29;20044;-78
2023/01/09 14:09:19;;;;;;;16.25;1.85;;;14.80;67.50;;;;;;4902385;29;20048;-78
2023/01/09 14:11:46;;;;;;;11.93;1.90;;;14.90;67.80;;;;;;4886292;29;20364;-80
2023/01/09 14:14:30;;;;;;;17.17;2.13;;;15.00;67.70;;;;;;4901964;29;20044;-81
2023/01/09 14:16:58;;;;;;;9.35;2.03;;;15.00;67.90;;;;;;4902155;29;20488;-78
2023/01/09 14:19:36;;;;;;;16.13;2.65;;;15.00;67.80;;;;;;4885426;29;20064;-80
2023/01/09 14:22:03;;;;;;;10.90;1.67;;;15.00;67.90;;;;;;4901497;29;20071;-77
2023/01/09 14:24:40;;;;;;;12.52;1.80;;;15.00;68.00;;;;;;4901916;29;20056;-79
2023/01/09 14:27:45;;;;;;;18.40;2.50;;;15.10;68.10;;;;;;4901888;29;20068;-81
2023/01/09 14:30:22;;;;;;;19.88;2.47;;;15.10;68.30;;;;;;4901662;29;20476;-78
2023/01/09 14:33:06;;;;;;;21.27;2.78;;;15.20;68.30;;;;;;4901573;29;20091;-77
2023/01/09 14:35:47;;;;;;;18.45;1.98;;;15.30;68.30;;;;;;4901945;29;20192;-77
2023/01/09 14:38:24;;;;;;;18.30;2.58;;;15.40;68.20;;;;;;4885346;29;20090;-78
2023/01/09 14:44:41;;;;;;;14.75;2.25;;;15.50;67.90;;;;;;4901819;29;20048;-76
2023/01/09 14:47:20;;;;;;;7.53;2.33;;;15.70;67.70;;;;;;4902189;29;20052;-76
2023/01/09 14:50:04;;;;;;;18.20;3.75;;;15.70;67.90;;;;;;4884983;29;20124;-76
2023/01/09 14:52:38;;;;;;;14.65;3.50;;;15.80;68.10;;;;;;4884501;29;20056;-76
2023/01/09 14:55:16;;;;;;;20.40;3.15;;;15.90;68.20;;;;;;4901760;29;20049;-75
2023/01/09 14:57:42;;;;;;;14.55;4.00;;;15.90;68.30;;;;;;4901866;29;20326;-76
2023/01/09 15:00:10;;;;;;;12.63;3.35;;;16.00;68.30;;;;;;4899961;29;20143;-79
2023/01/09 15:02:37;;;;;;;10.32;3.15;;;16.00;68.40;;;;;;4901840;29;20056;-77
2023/01/09 15:05:10;;;;;;;15.05;3.03;;;16.00;68.50;;;;;;4901169;29;20052;-76
2023/01/09 15:07:50;;;;;;;15.57;2.70;;;16.00;68.50;;;;;;4901236;29;20136;-77
2023/01/09 15:10:23;;;;;;;10.43;2.40;;;16.00;68.60;;;;;;4900966;29;20048;-79
2023/01/09 15:12:52;;;;;;;9.23;2.75;;;16.00;68.50;;;;;;4885009;29;20364;-77
2023/01/09 15:15:20;;;;;;;12.18;2.55;;;16.00;68.70;;;;;;4901301;29;20321;-79
2023/01/09 15:17:57;;;;;;;19.55;2.80;;;16.00;68.50;;;;;;4884603;29;20052;-77
2023/01/09 15:20:27;;;;;;;12.00;2.40;;;16.00;67.10;;;;;;4900968;29;20088;-76
2023/01/09 15:22:54;;;;;;;13.85;2.58;;;16.00;66.20;;;;;;4900652;29;20052;-74
2023/01/09 15:25:19;;;;;;;10.85;2.90;;;16.00;65.70;;;;;;4900787;29;20052;-76
2023/01/09 15:27:50;;;;;;;32.72;3.63;;;16.00;66.10;;;;;;4900712;29;20100;-75
2023/01/09 15:30:26;;;;;;;13.95;2.72;;;16.00;66.40;;;;;;4908082;29;20056;-74
2023/01/09 15:32:52;;;;;;;13.93;2.55;;;16.00;66.60;;;;;;4899989;29;20116;-75
2023/01/09 15:35:19;;;;;;;12.45;2.63;;;16.10;67.00;;;;;;4900230;29;20412;-75
2023/01/09 15:37:45;;;;;;;14.07;2.17;;;16.10;67.20;;;;;;4900806;29;20049;-74
2023/01/09 15:40:21;;;;;;;12.93;2.38;;;16.10;67.40;;;;;;4900530;29;20044;-76
2023/01/09 15:42:59;;;;;;;11.80;2.10;;;16.10;67.40;;;;;;4900826;29;20049;-76
2023/01/09 15:45:34;;;;;;;18.25;2.90;;;16.10;67.20;;;;;;4900451;29;20428;-78
2023/01/09 15:48:18;;;;;;;12.52;2.65;;;16.20;66.70;;;;;;4900606;29;20127;-76
2023/01/09 15:50:52;;;;;;;14.13;2.75;;;16.20;66.20;;;;;;4899921;29;20420;-75
2023/01/09 15:53:21;;;;;;;12.30;2.00;;;16.10;66.40;;;;;;4900708;29;20063;-75
2023/01/09 15:56:22;;;;;;;23.13;2.63;;;16.20;66.90;;;;;;4900386;29;20474;-75
2023/01/09 15:58:53;;;;;;;20.45;3.95;;;16.00;67.40;;;;;;4900213;29;20124;-76
2023/01/09 16:01:39;;;;;;;21.83;4.07;;;16.00;67.50;;;;;;4900403;29;20132;-75
2023/01/09 16:04:14;;;;;;;25.85;3.55;;;16.00;67.50;;;;;;4899670;29;20448;-77
2023/01/09 16:06:46;;;;;;;32.53;3.88;;;16.10;67.70;;;;;;4899940;29;20070;-76
2023/01/09 16:09:36;;;;;;;26.77;3.03;;;16.10;67.80;;;;;;4899430;29;20048;-76
2023/01/09 16:12:03;;;;;;;22.63;3.35;;;16.10;68.00;;;;;;4899652;29;20048;-76
2023/01/09 16:14:33;;;;;;;35.55;4.65;;;16.10;68.10;;;;;;4900045;29;20064;-76